Time;durP1;ratioP1;P1;durP2;ratioP2;P2;SDS_P1;SDS_P2;PMS_P1;PMS_P2;Temp;Humidity;BMP_temperature;BMP_pressure;BME280_temperature;BME280_humidity;BME280_pressure;Samples;Min_cycle;Max_cycle;Signal;HPM_P1;HPM_P2
2020/12/13 00:01:40;;;;;;;5.00;2.42;;;23.40;33.20;;;;;;5041667;28;20881;-65
2020/12/13 00:04:05;;;;;;;4.15;2.75;;;23.40;33.20;;;;;;5038994;28;20385;-65
2020/12/13 00:06:31;;;;;;;4.13;3.00;;;23.40;33.30;;;;;;5022622;28;20919;-59
2020/12/13 00:08:58;;;;;;;5.10;3.45;;;23.40;33.30;;;;;;5036734;28;20717;-65
2020/12/13 00:11:24;;;;;;;4.68;3.58;;;23.40;33.30;;;;;;5039536;28;20432;-59
2020/12/13 00:13:49;;;;;;;5.03;3.40;;;23.30;33.20;;;;;;5042595;28;20859;-59
2020/12/13 00:16:15;;;;;;;4.45;3.20;;;23.30;33.30;;;;;;5039441;28;20921;-65
2020/12/13 00:18:44;;;;;;;4.90;3.50;;;23.30;33.30;;;;;;5040504;28;20409;-65
2020/12/13 00:21:13;;;;;;;4.45;3.03;;;23.30;33.40;;;;;;5039469;28;20386;-65
2020/12/13 00:23:40;;;;;;;4.83;3.20;;;23.20;33.20;;;;;;5040216;28;20727;-65
2020/12/13 00:26:11;;;;;;;4.38;3.10;;;23.20;33.90;;;;;;5038775;28;20379;-64
2020/12/13 00:28:37;;;;;;;3.65;2.90;;;23.20;33.30;;;;;;5039881;28;20385;-59
2020/12/13 00:31:04;;;;;;;4.35;3.00;;;23.20;33.30;;;;;;5039785;28;20461;-65
2020/12/13 00:33:30;;;;;;;3.80;2.75;;;23.10;33.60;;;;;;5040112;28;20392;-65
2020/12/13 00:35:56;;;;;;;3.63;2.65;;;23.10;33.80;;;;;;5023296;28;20417;-64
2020/12/13 00:38:21;;;;;;;3.45;2.60;;;23.00;33.90;;;;;;5038247;28;20393;-64
2020/12/13 00:40:51;;;;;;;3.67;2.70;;;23.00;33.60;;;;;;5040544;28;20383;-65
2020/12/13 00:43:18;;;;;;;3.97;2.78;;;22.90;33.80;;;;;;5036468;28;20756;-65
2020/12/13 00:45:44;;;;;;;3.75;2.63;;;22.90;33.60;;;;;;5040262;28;20418;-64
2020/12/13 00:48:10;;;;;;;3.53;2.67;;;22.90;33.60;;;;;;5040872;28;20792;-63
2020/12/13 00:50:38;;;;;;;4.20;2.63;;;22.80;33.60;;;;;;5030419;28;20437;-65
2020/12/13 00:53:05;;;;;;;3.28;2.50;;;22.80;33.50;;;;;;5031004;28;20418;-64
2020/12/13 00:55:30;;;;;;;3.30;2.60;;;22.80;33.50;;;;;;5030740;28;20395;-65
2020/12/13 00:57:56;;;;;;;3.22;2.42;;;22.80;33.50;;;;;;5030661;28;20398;-65
2020/12/13 01:00:21;;;;;;;3.60;2.40;;;22.70;33.30;;;;;;5030675;28;20387;-65
2020/12/13 01:02:47;;;;;;;2.67;2.20;;;22.80;33.50;;;;;;5032962;28;20491;-65
2020/12/13 01:05:14;;;;;;;3.50;2.43;;;22.70;33.40;;;;;;5034139;28;20388;-65
2020/12/13 01:07:39;;;;;;;3.53;2.40;;;22.70;33.30;;;;;;5034175;28;20395;-65
2020/12/13 01:10:05;;;;;;;3.30;2.40;;;22.70;33.50;;;;;;5034042;28;20475;-64
2020/12/13 01:12:31;;;;;;;3.38;2.38;;;22.70;33.40;;;;;;5015710;28;20488;-64
2020/12/13 01:14:57;;;;;;;3.40;2.30;;;22.60;33.30;;;;;;5034032;28;20388;-64
2020/12/13 01:17:23;;;;;;;3.20;2.40;;;22.60;33.30;;;;;;5033882;28;20458;-65
2020/12/13 01:19:48;;;;;;;3.03;2.30;;;22.60;33.30;;;;;;5034001;28;20379;-65
2020/12/13 01:22:14;;;;;;;3.00;2.30;;;22.60;33.30;;;;;;5033922;28;20875;-65
2020/12/13 01:24:41;;;;;;;2.83;2.30;;;22.50;33.20;;;;;;5033370;28;20394;-65
2020/12/13 01:27:06;;;;;;;3.33;2.30;;;22.50;33.30;;;;;;5033794;28;20399;-64
2020/12/13 01:29:32;;;;;;;2.70;2.13;;;22.50;33.20;;;;;;5015931;28;20387;-65
2020/12/13 01:31:58;;;;;;;2.97;2.30;;;22.50;33.30;;;;;;5033793;28;20474;-64
2020/12/13 01:34:23;;;;;;;2.97;2.20;;;22.50;33.30;;;;;;5033595;28;20470;-65
2020/12/13 01:36:49;;;;;;;3.40;2.20;;;22.40;33.30;;;;;;5033353;28;20450;-64
2020/12/13 01:39:14;;;;;;;2.85;2.20;;;22.40;33.30;;;;;;5033695;28;20402;-65
2020/12/13 01:41:40;;;;;;;2.97;2.27;;;22.40;33.30;;;;;;5033521;28;20414;-64
2020/12/13 01:44:06;;;;;;;3.00;2.15;;;22.40;33.30;;;;;;5033453;28;20408;-65
2020/12/13 01:46:33;;;;;;;2.60;2.00;;;22.40;33.30;;;;;;5033043;28;20391;-64
2020/12/13 01:49:08;;;;;;;2.55;2.00;;;22.30;33.30;;;;;;5033355;28;20946;-64
2020/12/13 01:54:20;;;;;;;3.08;2.10;;;22.30;33.30;;;;;;5033227;28;20394;-65
2020/12/13 01:56:51;;;;;;;2.70;2.10;;;22.30;34.00;;;;;;5032650;28;20887;-64
2020/12/13 01:59:20;;;;;;;2.88;2.00;;;22.30;33.30;;;;;;5033184;28;20476;-65
2020/12/13 02:01:56;;;;;;;2.43;2.00;;;22.30;33.30;;;;;;5033164;28;20390;-64
2020/12/13 02:04:23;;;;;;;2.60;1.83;;;22.30;33.30;;;;;;5032390;28;20394;-65
2020/12/13 02:06:51;;;;;;;2.40;1.90;;;22.20;33.30;;;;;;5032340;28;20403;-65
2020/12/13 02:09:18;;;;;;;2.60;2.10;;;22.20;33.30;;;;;;5032849;28;20466;-65
2020/12/13 02:11:44;;;;;;;2.42;1.98;;;22.20;33.40;;;;;;5032508;28;20415;-65
2020/12/13 02:14:09;;;;;;;2.30;1.90;;;22.20;33.40;;;;;;5032610;28;20878;-65
2020/12/13 02:16:35;;;;;;;2.90;2.03;;;22.20;33.40;;;;;;5032392;28;20505;-65
2020/12/13 02:19:01;;;;;;;2.33;1.93;;;22.10;33.40;;;;;;5032870;28;20387;-64
2020/12/13 02:21:27;;;;;;;2.28;1.70;;;22.10;33.40;;;;;;5032904;28;20963;-62
2020/12/13 02:23:53;;;;;;;2.23;1.93;;;22.10;33.50;;;;;;5032726;28;20491;-64
2020/12/13 02:26:18;;;;;;;2.00;1.80;;;22.10;33.50;;;;;;5032614;28;20794;-63
2020/12/13 02:28:44;;;;;;;2.50;1.80;;;22.00;33.40;;;;;;5032201;28;20391;-62
2020/12/13 02:31:10;;;;;;;2.50;1.90;;;22.00;33.40;;;;;;5032513;28;20395;-64
2020/12/13 02:33:36;;;;;;;2.65;1.98;;;22.00;33.50;;;;;;5032531;28;20901;-64
2020/12/13 02:36:03;;;;;;;2.57;1.97;;;22.00;33.50;;;;;;5032005;28;20494;-64
2020/12/13 02:38:30;;;;;;;2.55;2.00;;;22.00;33.50;;;;;;5032266;28;20399;-64
2020/12/13 02:40:56;;;;;;;2.30;1.80;;;22.00;33.50;;;;;;5014352;28;20913;-64
2020/12/13 02:43:22;;;;;;;2.42;1.90;;;22.00;33.50;;;;;;5029023;28;20485;-64
2020/12/13 02:45:48;;;;;;;2.03;1.70;;;21.90;33.50;;;;;;5032272;28;20863;-64
2020/12/13 02:48:13;;;;;;;2.30;1.80;;;21.90;33.50;;;;;;5032327;28;20449;-64
2020/12/13 02:50:39;;;;;;;2.15;1.80;;;21.90;33.60;;;;;;5031574;28;20390;-63
2020/12/13 02:53:05;;;;;;;2.43;1.80;;;21.90;33.50;;;;;;5032225;28;20399;-64
2020/12/13 02:55:31;;;;;;;2.42;1.92;;;21.90;33.50;;;;;;5032048;28;20497;-63
2020/12/13 02:57:57;;;;;;;2.80;1.77;;;21.90;33.60;;;;;;5032277;28;20477;-64
2020/12/13 03:00:22;;;;;;;2.00;1.70;;;21.80;33.50;;;;;;5031940;28;20452;-64
2020/12/13 03:02:48;;;;;;;2.20;1.70;;;21.80;33.60;;;;;;5031528;28;21011;-64
2020/12/13 03:05:13;;;;;;;2.20;1.63;;;21.80;33.60;;;;;;5031803;28;20397;-64
2020/12/13 03:07:39;;;;;;;2.58;1.80;;;21.80;33.60;;;;;;5032091;28;20391;-63
2020/12/13 03:10:04;;;;;;;1.90;1.70;;;21.80;33.70;;;;;;5030564;28;20752;-64
2020/12/13 03:12:30;;;;;;;2.20;1.80;;;21.80;33.70;;;;;;5029956;28;20447;-64
2020/12/13 03:14:56;;;;;;;2.08;1.70;;;21.70;33.60;;;;;;5031601;28;20453;-64
2020/12/13 03:17:22;;;;;;;2.80;1.93;;;21.70;33.70;;;;;;5031652;28;20411;-64
2020/12/13 03:19:48;;;;;;;2.20;1.85;;;21.70;33.70;;;;;;5031683;28;20394;-64
2020/12/13 03:22:14;;;;;;;2.20;1.98;;;21.70;34.20;;;;;;5031036;28;20403;-64
2020/12/13 03:24:39;;;;;;;2.05;1.75;;;21.70;33.60;;;;;;5030451;28;20410;-64
2020/12/13 03:27:05;;;;;;;2.10;1.60;;;21.70;33.70;;;;;;5031633;28;20388;-63
2020/12/13 03:29:31;;;;;;;2.38;1.75;;;21.60;33.70;;;;;;5031728;28;20453;-64
2020/12/13 03:31:56;;;;;;;2.10;1.80;;;21.60;33.70;;;;;;5031707;28;20387;-64
2020/12/13 03:34:22;;;;;;;1.90;1.53;;;21.60;33.70;;;;;;5031500;28;20399;-64
2020/12/13 03:36:48;;;;;;;1.90;1.70;;;21.60;33.70;;;;;;5031193;28;20834;-63
2020/12/13 03:39:14;;;;;;;2.00;1.63;;;21.60;33.70;;;;;;5031351;28;20387;-63
2020/12/13 03:41:39;;;;;;;2.08;1.60;;;21.60;33.70;;;;;;5031465;28;20402;-63
2020/12/13 03:44:05;;;;;;;2.00;1.50;;;21.60;33.80;;;;;;5031404;28;20386;-62
2020/12/13 03:46:30;;;;;;;2.00;1.60;;;21.60;33.80;;;;;;5031212;28;20479;-57
2020/12/13 03:48:56;;;;;;;1.83;1.63;;;21.60;33.80;;;;;;5031343;28;20399;-64
2020/12/13 03:51:22;;;;;;;2.10;1.60;;;21.50;33.80;;;;;;5031349;28;20441;-63
2020/12/13 03:53:47;;;;;;;2.10;1.80;;;21.50;33.80;;;;;;5031242;28;20906;-63
2020/12/13 03:56:13;;;;;;;2.22;1.80;;;21.50;33.80;;;;;;5031225;28;20422;-63
2020/12/13 03:58:39;;;;;;;2.27;1.77;;;21.50;33.80;;;;;;5030790;28;20467;-62
2020/12/13 04:01:04;;;;;;;1.95;1.63;;;21.50;33.80;;;;;;5031186;28;20398;-63
2020/12/13 04:03:30;;;;;;;2.10;1.87;;;21.50;33.90;;;;;;5031375;28;20470;-63
2020/12/13 04:05:56;;;;;;;2.15;1.70;;;21.50;33.80;;;;;;5031465;28;20390;-64
2020/12/13 04:08:21;;;;;;;2.40;1.70;;;21.40;34.00;;;;;;5031206;28;20465;-63
2020/12/13 04:10:47;;;;;;;1.90;1.50;;;21.50;34.10;;;;;;5030619;28;20391;-63
2020/12/13 04:13:13;;;;;;;1.93;1.70;;;21.60;34.00;;;;;;5031187;28;20387;-63
2020/12/13 04:15:38;;;;;;;2.13;1.60;;;21.60;33.90;;;;;;5030944;28;20406;-62
2020/12/13 04:18:04;;;;;;;1.90;1.60;;;21.70;33.80;;;;;;5031044;28;20439;-63
2020/12/13 04:20:30;;;;;;;2.40;1.70;;;21.70;33.70;;;;;;5031183;28;20787;-63
2020/12/13 04:22:56;;;;;;;1.80;1.60;;;21.80;33.60;;;;;;5030634;28;20399;-63
2020/12/13 04:25:21;;;;;;;2.00;1.55;;;21.80;33.40;;;;;;5031023;28;20391;-63
2020/12/13 04:27:47;;;;;;;1.90;1.70;;;21.80;33.50;;;;;;5031130;28;20394;-63
2020/12/13 04:30:13;;;;;;;1.77;1.50;;;21.90;33.50;;;;;;5030938;28;20409;-63
2020/12/13 04:32:39;;;;;;;1.87;1.60;;;21.90;33.50;;;;;;5030656;28;20395;-57
2020/12/13 04:35:05;;;;;;;1.75;1.45;;;21.90;33.40;;;;;;5030968;28;20402;-64
2020/12/13 04:37:31;;;;;;;2.05;1.60;;;21.90;33.40;;;;;;5034689;28;20415;-63
2020/12/13 04:39:57;;;;;;;1.80;1.50;;;21.90;34.10;;;;;;5034741;28;20387;-63
2020/12/13 04:42:23;;;;;;;1.73;1.40;;;21.90;33.30;;;;;;5033256;28;20441;-63
2020/12/13 04:44:49;;;;;;;1.80;1.40;;;21.90;33.30;;;;;;5034280;28;20555;-64
2020/12/13 04:47:19;;;;;;;1.77;1.50;;;22.00;33.30;;;;;;5034570;28;20387;-63
2020/12/13 04:49:50;;;;;;;1.75;1.48;;;22.00;33.20;;;;;;5034574;28;20387;-62
2020/12/13 04:52:16;;;;;;;1.80;1.40;;;22.00;33.20;;;;;;5034475;28;20406;-64
2020/12/13 04:54:50;;;;;;;2.00;1.40;;;22.00;33.10;;;;;;5016398;28;20395;-63
2020/12/13 04:57:19;;;;;;;1.73;1.40;;;22.00;33.10;;;;;;5034361;28;20547;-63
2020/12/13 04:59:49;;;;;;;1.70;1.40;;;22.00;33.10;;;;;;5034259;28;20466;-63
2020/12/13 05:02:16;;;;;;;2.10;1.67;;;22.10;33.10;;;;;;5034310;28;20395;-63
2020/12/13 05:04:42;;;;;;;2.05;1.60;;;22.00;33.00;;;;;;5033774;28;20395;-63
2020/12/13 05:07:09;;;;;;;1.80;1.50;;;22.10;33.10;;;;;;5034050;28;20387;-63
2020/12/13 05:09:35;;;;;;;1.75;1.40;;;22.00;33.00;;;;;;5034249;28;20410;-63
2020/12/13 05:12:01;;;;;;;1.73;1.50;;;22.00;33.00;;;;;;5033408;28;20407;-63
2020/12/13 05:14:27;;;;;;;1.73;1.38;;;22.00;32.90;;;;;;5033579;28;20874;-63
2020/12/13 05:17:13;;;;;;;2.38;1.70;;;22.10;32.90;;;;;;5033324;28;20446;-63
2020/12/13 05:19:41;;;;;;;1.70;1.40;;;22.10;32.90;;;;;;5033804;28;20387;-64
2020/12/13 05:22:06;;;;;;;1.58;1.42;;;22.10;32.90;;;;;;5033927;28;20393;-64
2020/12/13 05:24:33;;;;;;;1.77;1.40;;;22.10;32.80;;;;;;5033290;28;20743;-63
2020/12/13 05:27:05;;;;;;;1.70;1.40;;;22.10;32.90;;;;;;5032739;28;20422;-61
2020/12/13 05:29:32;;;;;;;1.77;1.33;;;22.10;32.90;;;;;;5033557;28;20391;-63
2020/12/13 05:32:18;;;;;;;1.77;1.45;;;22.10;32.90;;;;;;5033681;28;20375;-61
2020/12/13 05:34:45;;;;;;;1.70;1.45;;;22.00;32.80;;;;;;5033249;28;20771;-63
2020/12/13 05:37:16;;;;;;;1.50;1.40;;;22.00;32.80;;;;;;5033441;28;20481;-63
2020/12/13 05:39:43;;;;;;;1.50;1.20;;;22.10;32.80;;;;;;5033719;28;20379;-63
2020/12/13 05:42:11;;;;;;;1.60;1.40;;;22.00;32.80;;;;;;5033559;28;20875;-63
2020/12/13 05:45:29;;;;;;;1.70;1.40;;;22.00;32.80;;;;;;5033418;28;20391;-58
2020/12/13 05:52:42;;;;;;;1.90;1.50;;;22.00;32.80;;;;;;5033555;28;20402;-63
2020/12/13 05:55:09;;;;;;;1.90;1.30;;;22.00;32.70;;;;;;5033218;28;20414;-63
2020/12/13 05:57:36;;;;;;;1.55;1.20;;;22.10;32.80;;;;;;5033156;28;20419;-64
2020/12/13 06:00:04;;;;;;;1.45;1.33;;;22.10;32.70;;;;;;5033090;28;20383;-63
2020/12/13 06:02:31;;;;;;;1.55;1.33;;;22.10;32.70;;;;;;5033179;28;20394;-63
2020/12/13 06:05:03;;;;;;;1.67;1.40;;;22.10;32.60;;;;;;5032506;28;20387;-63
2020/12/13 06:07:34;;;;;;;1.80;1.48;;;22.10;32.60;;;;;;5033162;28;20398;-63
2020/12/13 06:10:05;;;;;;;1.80;1.40;;;22.10;32.70;;;;;;5032891;28;20410;-62
2020/12/13 06:12:31;;;;;;;1.80;1.50;;;22.10;32.60;;;;;;5032585;28;20411;-63
2020/12/13 06:15:01;;;;;;;1.88;1.45;;;22.10;32.70;;;;;;5032499;28;20453;-63
2020/12/13 06:17:27;;;;;;;1.50;1.20;;;22.10;32.70;;;;;;5032807;28;20910;-63
2020/12/13 06:19:54;;;;;;;1.63;1.30;;;22.10;32.70;;;;;;5032842;28;20422;-63
2020/12/13 06:22:21;;;;;;;1.85;1.27;;;22.10;32.70;;;;;;5032806;28;20395;-63
2020/12/13 06:24:50;;;;;;;1.70;1.30;;;22.10;32.60;;;;;;5032220;28;20458;-63
2020/12/13 06:27:19;;;;;;;1.80;1.40;;;22.10;32.60;;;;;;5031860;28;20452;-63
2020/12/13 06:29:45;;;;;;;2.10;1.30;;;22.10;32.60;;;;;;5032295;28;20430;-63
2020/12/13 06:32:11;;;;;;;1.50;1.23;;;22.10;32.60;;;;;;5032539;28;20454;-63
2020/12/13 06:34:43;;;;;;;1.90;1.40;;;22.10;32.60;;;;;;5032554;28;20394;-63
2020/12/13 06:37:10;;;;;;;1.60;1.30;;;22.10;32.60;;;;;;5032130;28;20895;-62
2020/12/13 06:39:38;;;;;;;1.60;1.35;;;22.10;32.60;;;;;;5032500;28;20387;-63
2020/12/13 06:42:04;;;;;;;1.85;1.40;;;22.10;32.60;;;;;;5032364;28;20394;-63
2020/12/13 06:44:30;;;;;;;1.73;1.50;;;22.10;32.60;;;;;;5032277;28;20867;-63
2020/12/13 06:46:55;;;;;;;1.80;1.30;;;22.10;32.60;;;;;;5031935;28;20449;-63
2020/12/13 06:49:21;;;;;;;1.70;1.40;;;22.10;32.60;;;;;;5032796;28;20371;-63
2020/12/13 06:51:48;;;;;;;1.80;1.40;;;22.10;32.60;;;;;;5032365;28;20470;-64
2020/12/13 06:54:16;;;;;;;1.73;1.45;;;22.10;32.60;;;;;;5032180;28;20387;-63
2020/12/13 06:56:42;;;;;;;1.70;1.40;;;22.10;32.70;;;;;;5031890;28;20434;-63
2020/12/13 06:59:10;;;;;;;1.90;1.50;;;22.10;32.70;;;;;;5030811;28;20402;-63
2020/12/13 07:01:40;;;;;;;1.70;1.35;;;22.10;32.70;;;;;;5032106;28;20386;-64
2020/12/13 07:04:23;;;;;;;2.30;1.60;;;22.10;32.60;;;;;;5032160;28;20474;-63
2020/12/13 07:06:55;;;;;;;1.70;1.30;;;22.10;32.60;;;;;;5013704;28;20890;-64
2020/12/13 07:09:22;;;;;;;2.03;1.50;;;22.00;32.60;;;;;;5031912;28;20403;-64
2020/12/13 07:11:49;;;;;;;1.70;1.40;;;22.00;32.60;;;;;;5031540;28;20418;-64
2020/12/13 07:14:16;;;;;;;1.85;1.55;;;22.10;32.60;;;;;;5031770;28;20820;-63
2020/12/13 07:16:45;;;;;;;2.20;1.55;;;22.00;32.60;;;;;;5031464;28;20775;-59
2020/12/13 07:19:13;;;;;;;2.05;1.50;;;22.00;32.70;;;;;;5031440;28;20387;-64
2020/12/13 07:21:40;;;;;;;1.70;1.55;;;22.00;32.60;;;;;;5031754;28;20483;-63
2020/12/13 07:24:07;;;;;;;1.92;1.50;;;22.10;32.60;;;;;;5031687;28;20395;-63
2020/12/13 07:26:37;;;;;;;1.90;1.50;;;22.10;32.60;;;;;;5031564;28;20395;-63
2020/12/13 07:29:05;;;;;;;1.67;1.42;;;22.10;32.60;;;;;;5031021;28;20395;-64
2020/12/13 07:31:36;;;;;;;1.70;1.40;;;22.10;32.60;;;;;;5029038;28;20405;-64
2020/12/13 07:34:03;;;;;;;1.90;1.43;;;22.00;32.60;;;;;;5030972;28;20402;-63
2020/12/13 07:36:30;;;;;;;1.55;1.30;;;22.00;32.60;;;;;;5027043;28;20509;-64
2020/12/13 07:38:56;;;;;;;1.55;1.35;;;22.10;32.60;;;;;;5025584;28;20426;-64
2020/12/13 07:41:23;;;;;;;1.77;1.30;;;22.00;32.60;;;;;;5030785;28;20432;-63
2020/12/13 07:43:53;;;;;;;1.60;1.45;;;22.00;32.60;;;;;;5031569;28;20383;-64
2020/12/13 07:46:18;;;;;;;2.05;1.48;;;22.00;32.60;;;;;;5031426;28;20394;-64
2020/12/13 07:48:44;;;;;;;1.77;1.30;;;22.00;32.60;;;;;;5031166;28;20392;-62
2020/12/13 07:51:10;;;;;;;1.77;1.30;;;22.00;32.60;;;;;;5031084;28;20871;-64
2020/12/13 07:53:36;;;;;;;1.90;1.25;;;22.00;32.60;;;;;;5013743;28;20399;-64
2020/12/13 07:56:02;;;;;;;1.90;1.50;;;22.00;32.60;;;;;;5031171;28;20909;-64
2020/12/13 07:58:27;;;;;;;2.58;1.42;;;22.00;32.80;;;;;;5030670;28;20403;-63
2020/12/13 08:00:53;;;;;;;3.10;1.80;;;22.00;33.00;;;;;;5030383;28;20485;-64
2020/12/13 08:03:19;;;;;;;4.15;1.70;;;22.10;33.00;;;;;;5030604;28;20474;-64
2020/12/13 08:05:44;;;;;;;2.72;1.77;;;22.10;33.60;;;;;;5030748;28;20437;-64
2020/12/13 08:08:10;;;;;;;2.42;1.88;;;22.20;34.70;;;;;;5030937;28;20387;-64
2020/12/13 08:10:36;;;;;;;4.03;1.80;;;22.20;36.00;;;;;;5031711;28;20452;-64
2020/12/13 08:13:07;;;;;;;4.70;1.80;;;22.30;35.40;;;;;;5015978;28;20451;-63
2020/12/13 08:15:33;;;;;;;3.75;1.63;;;22.30;35.20;;;;;;5034848;28;20482;-64
2020/12/13 08:18:13;;;;;;;2.00;1.60;;;22.30;35.00;;;;;;5034752;28;20502;-62
2020/12/13 08:20:43;;;;;;;1.90;1.45;;;22.30;35.10;;;;;;5035070;28;20391;-64
2020/12/13 08:23:12;;;;;;;2.42;1.60;;;22.30;33.90;;;;;;5034428;28;20755;-64
2020/12/13 08:25:38;;;;;;;3.60;1.50;;;22.20;34.20;;;;;;5035045;28;20739;-64
2020/12/13 08:28:05;;;;;;;1.70;1.40;;;22.20;33.90;;;;;;5034729;28;20486;-64
2020/12/13 08:30:31;;;;;;;2.42;1.30;;;22.10;33.70;;;;;;5033848;28;20398;-64
2020/12/13 08:32:58;;;;;;;11.00;2.00;;;22.00;33.60;;;;;;5034183;28;20391;-64
2020/12/13 08:35:27;;;;;;;1.90;1.45;;;22.00;33.80;;;;;;5034936;28;20410;-64
2020/12/13 08:37:57;;;;;;;2.67;1.40;;;22.00;33.90;;;;;;5034742;28;20415;-64
2020/12/13 08:40:36;;;;;;;2.58;1.40;;;22.00;33.60;;;;;;5034490;28;20383;-64
2020/12/13 08:43:02;;;;;;;2.30;1.48;;;22.00;33.40;;;;;;5034101;28;20822;-63
2020/12/13 08:45:28;;;;;;;1.65;1.30;;;22.00;33.30;;;;;;5034411;28;20432;-64
2020/12/13 08:48:02;;;;;;;3.80;1.60;;;22.00;33.20;;;;;;5034612;28;20391;-64
2020/12/13 08:50:39;;;;;;;3.70;1.70;;;22.00;33.20;;;;;;5034513;28;20422;-64
2020/12/13 08:53:19;;;;;;;6.10;5.60;;;22.00;33.20;;;;;;5033811;28;20414;-65
2020/12/13 08:55:57;;;;;;;3.78;3.47;;;22.10;33.50;;;;;;5033902;28;20398;-64
2020/12/13 08:58:23;;;;;;;4.53;4.07;;;22.00;33.40;;;;;;5016575;28;20414;-64
2020/12/13 09:00:49;;;;;;;10.50;9.60;;;22.10;33.80;;;;;;5033993;28;20395;-64
2020/12/13 09:03:27;;;;;;;3.90;3.40;;;22.10;34.20;;;;;;5033917;28;20410;-63
2020/12/13 09:05:54;;;;;;;14.53;13.33;;;22.20;34.90;;;;;;5034318;28;20410;-64
2020/12/13 09:08:23;;;;;;;9.10;8.30;;;22.20;34.90;;;;;;5030039;28;20403;-62
2020/12/13 09:10:49;;;;;;;11.15;10.23;;;22.20;35.70;;;;;;5031413;28;20391;-61
2020/12/13 09:13:15;;;;;;;15.95;14.68;;;22.20;35.60;;;;;;5033583;28;20634;-63
2020/12/13 09:15:40;;;;;;;8.93;8.23;;;22.20;35.60;;;;;;5033575;28;20903;-63
2020/12/13 09:18:06;;;;;;;8.75;8.13;;;22.10;35.00;;;;;;5033529;28;20402;-63
2020/12/13 09:20:38;;;;;;;9.18;8.38;;;22.10;34.50;;;;;;5033770;28;20445;-63
2020/12/13 09:23:05;;;;;;;7.53;7.00;;;22.10;34.60;;;;;;5049335;28;20397;-63
2020/12/13 09:25:44;;;;;;;7.85;7.25;;;22.10;34.90;;;;;;5053478;28;20382;-63
2020/12/13 09:28:11;;;;;;;9.30;8.50;;;22.10;34.50;;;;;;5038441;28;20482;-61
2020/12/13 09:30:38;;;;;;;9.85;9.05;;;22.00;35.10;;;;;;5032982;28;20379;-63
2020/12/13 09:33:05;;;;;;;8.90;8.20;;;22.10;35.60;;;;;;5033153;28;20898;-63
2020/12/13 09:35:31;;;;;;;8.50;7.82;;;22.10;36.60;;;;;;5033556;28;20402;-63
2020/12/13 09:38:01;;;;;;;7.53;6.93;;;22.10;36.20;;;;;;5033389;28;20497;-63
2020/12/13 09:40:27;;;;;;;6.82;6.32;;;22.10;36.50;;;;;;5033433;28;20387;-62
2020/12/13 09:42:53;;;;;;;6.28;5.78;;;22.00;36.50;;;;;;5033182;28;20406;-62
2020/12/13 09:45:19;;;;;;;6.15;5.60;;;22.00;37.10;;;;;;5033368;28;20406;-63
2020/12/13 09:47:45;;;;;;;4.77;4.37;;;22.10;36.90;;;;;;5033030;28;20391;-63
2020/12/13 09:50:10;;;;;;;4.80;4.03;;;22.10;35.80;;;;;;5032895;28;20442;-63
2020/12/13 09:52:36;;;;;;;4.50;4.10;;;22.00;35.60;;;;;;5033297;28;20478;-63
2020/12/13 09:55:02;;;;;;;3.80;3.50;;;22.10;35.40;;;;;;5032704;28;20395;-63
2020/12/13 09:57:28;;;;;;;3.92;2.80;;;22.10;34.90;;;;;;5033074;28;20514;-64
2020/12/13 09:59:54;;;;;;;3.45;2.53;;;22.10;35.30;;;;;;5033185;28;20537;-63
2020/12/13 10:02:19;;;;;;;4.43;2.70;;;22.10;34.80;;;;;;5031652;28;20890;-63
2020/12/13 10:04:45;;;;;;;4.90;2.40;;;22.10;34.70;;;;;;5033095;28;20391;-63
2020/12/13 10:09:39;;;;;;;3.45;2.10;;;22.10;34.90;;;;;;5033199;28;20867;-63
2020/12/13 10:12:05;;;;;;;2.67;1.95;;;22.10;34.60;;;;;;5032719;28;20497;-63
2020/12/13 10:14:31;;;;;;;7.13;2.20;;;22.10;34.60;;;;;;5033085;28;20383;-63
2020/12/13 10:16:57;;;;;;;3.60;1.90;;;22.10;34.20;;;;;;5032256;28;20419;-58
2020/12/13 10:19:23;;;;;;;3.25;2.08;;;22.10;34.20;;;;;;5032995;28;20457;-63
2020/12/13 10:21:49;;;;;;;2.05;1.80;;;22.20;34.20;;;;;;5032836;28;20395;-63
2020/12/13 10:24:15;;;;;;;2.97;1.70;;;22.10;34.60;;;;;;5032740;28;20863;-63
2020/12/13 10:26:41;;;;;;;3.53;1.88;;;22.10;34.00;;;;;;5031356;28;20430;-63
2020/12/13 10:29:07;;;;;;;2.45;1.77;;;22.10;33.90;;;;;;5030342;28;20387;-63
2020/12/13 10:31:35;;;;;;;2.55;1.70;;;22.10;33.80;;;;;;5030809;28;20391;-63
2020/12/13 10:34:03;;;;;;;2.22;1.70;;;22.10;33.80;;;;;;5027968;28;20441;-63
2020/12/13 10:36:32;;;;;;;1.97;1.60;;;22.10;33.80;;;;;;5031380;28;20464;-60
2020/12/13 10:38:59;;;;;;;2.88;1.77;;;22.10;33.80;;;;;;5012386;28;20420;-62
2020/12/13 10:41:24;;;;;;;2.13;1.63;;;22.10;33.90;;;;;;5031371;28;20391;-63
2020/12/13 10:43:51;;;;;;;4.90;1.90;;;22.00;33.90;;;;;;5031211;28;20391;-63
2020/12/13 10:46:17;;;;;;;2.10;1.60;;;22.00;33.90;;;;;;5028091;28;20887;-61
2020/12/13 10:48:44;;;;;;;3.35;1.60;;;22.00;33.90;;;;;;5028476;28;20395;-63
2020/12/13 10:51:10;;;;;;;2.65;1.48;;;22.00;33.90;;;;;;5030421;28;20456;-63
2020/12/13 10:53:36;;;;;;;2.53;1.50;;;22.00;33.90;;;;;;5030925;28;21743;-63
2020/12/13 10:56:05;;;;;;;2.28;1.40;;;22.00;34.00;;;;;;5030828;28;20411;-63
2020/12/13 10:58:30;;;;;;;2.40;1.40;;;22.00;34.00;;;;;;5030854;28;20453;-64
2020/12/13 11:00:56;;;;;;;2.40;1.50;;;22.00;34.00;;;;;;5030467;28;20387;-62
2020/12/13 11:03:23;;;;;;;2.80;1.60;;;22.00;34.00;;;;;;5030659;28;20823;-64
2020/12/13 11:05:48;;;;;;;2.00;1.50;;;22.00;34.00;;;;;;5030588;28;20379;-63
2020/12/13 11:08:14;;;;;;;2.00;1.33;;;22.00;34.00;;;;;;5030609;28;20399;-63
2020/12/13 11:10:47;;;;;;;2.28;1.30;;;22.00;34.00;;;;;;5030686;28;20396;-64
2020/12/13 11:13:13;;;;;;;1.73;1.40;;;22.00;33.90;;;;;;5030093;28;20806;-63
2020/12/13 11:15:40;;;;;;;1.50;1.20;;;22.00;33.90;;;;;;5030278;28;20437;-62
2020/12/13 11:18:06;;;;;;;1.70;1.35;;;22.00;33.90;;;;;;5012936;28;20472;-63
2020/12/13 11:20:32;;;;;;;2.45;1.40;;;22.00;33.90;;;;;;5030387;28;20395;-63
2020/12/13 11:22:58;;;;;;;1.57;1.20;;;22.00;33.90;;;;;;5012478;28;20410;-63
2020/12/13 11:25:23;;;;;;;1.70;1.30;;;22.00;33.90;;;;;;5029958;28;20383;-64
2020/12/13 11:27:49;;;;;;;1.80;1.20;;;22.00;33.90;;;;;;5029881;28;20403;-64
2020/12/13 11:30:14;;;;;;;1.50;1.30;;;22.00;34.00;;;;;;5030056;28;20454;-63
2020/12/13 11:32:43;;;;;;;1.80;1.50;;;22.00;34.00;;;;;;5030486;28;20392;-63
2020/12/13 11:35:10;;;;;;;1.77;1.30;;;22.00;34.10;;;;;;5029945;28;20391;-64
2020/12/13 11:37:36;;;;;;;3.05;1.20;;;22.00;34.20;;;;;;5030078;28;20419;-63
2020/12/13 11:40:01;;;;;;;3.15;1.40;;;22.00;34.10;;;;;;5030233;28;20383;-62
2020/12/13 11:42:27;;;;;;;2.33;1.42;;;22.00;34.10;;;;;;5030604;28;20541;-62
2020/12/13 11:44:53;;;;;;;3.60;1.40;;;22.00;34.40;;;;;;5030692;28;20478;-64
2020/12/13 11:47:18;;;;;;;7.22;1.50;;;22.00;35.00;;;;;;5030304;28;20391;-63
2020/12/13 11:49:44;;;;;;;6.43;1.60;;;21.90;35.20;;;;;;5031321;28;20939;-63
2020/12/13 11:52:10;;;;;;;8.18;1.50;;;22.00;34.70;;;;;;5031283;28;20905;-63
2020/12/13 11:54:36;;;;;;;8.10;1.70;;;22.00;34.30;;;;;;5031190;28;20751;-63
2020/12/13 11:57:02;;;;;;;8.30;1.50;;;22.00;34.20;;;;;;5030492;28;20415;-60
2020/12/13 11:59:28;;;;;;;5.72;1.27;;;22.00;34.10;;;;;;5031002;28;20410;-63
2020/12/13 12:01:55;;;;;;;3.72;1.35;;;22.00;34.90;;;;;;5031150;28;20445;-63
2020/12/13 12:04:21;;;;;;;9.80;1.50;;;22.00;34.60;;;;;;5013393;28;20478;-63
2020/12/13 12:06:47;;;;;;;9.68;1.50;;;22.00;35.00;;;;;;5031008;28;20475;-63
2020/12/13 12:09:14;;;;;;;4.68;1.90;;;22.00;36.10;;;;;;5012887;28;20399;-64
2020/12/13 12:11:40;;;;;;;4.65;1.70;;;22.00;36.70;;;;;;5030138;28;20399;-63
2020/12/13 12:14:10;;;;;;;8.73;1.60;;;22.10;37.60;;;;;;5029305;28;20399;-63
2020/12/13 12:16:36;;;;;;;5.63;1.70;;;22.10;37.00;;;;;;5029221;28;20415;-63
2020/12/13 12:19:02;;;;;;;10.00;1.63;;;22.20;38.50;;;;;;5028650;28;20399;-63
2020/12/13 12:21:29;;;;;;;3.78;1.60;;;22.20;39.00;;;;;;5029659;28;20379;-63
2020/12/13 12:23:55;;;;;;;6.45;1.60;;;22.40;40.10;;;;;;5030266;28;20387;-63
2020/12/13 12:26:21;;;;;;;6.05;1.70;;;22.40;40.90;;;;;;5029772;28;20561;-60
2020/12/13 12:28:49;;;;;;;7.33;1.50;;;22.50;41.00;;;;;;5006208;28;20488;-64
2020/12/13 12:31:19;;;;;;;3.85;1.40;;;22.50;40.40;;;;;;5028641;28;20375;-62
2020/12/13 12:33:45;;;;;;;3.83;1.50;;;22.50;39.40;;;;;;5029465;28;20398;-63
2020/12/13 12:36:22;;;;;;;4.35;1.50;;;22.60;38.90;;;;;;5029425;28;20407;-63
2020/12/13 12:38:49;;;;;;;6.40;1.70;;;22.60;39.40;;;;;;5029234;28;20406;-63
2020/12/13 12:41:16;;;;;;;3.45;1.45;;;22.60;39.60;;;;;;5028505;28;20383;-64
2020/12/13 12:43:42;;;;;;;4.80;1.40;;;22.60;39.20;;;;;;5029702;28;20411;-64
2020/12/13 12:46:08;;;;;;;4.65;1.60;;;22.60;39.20;;;;;;5029188;28;20399;-63
2020/12/13 12:48:34;;;;;;;2.63;1.40;;;22.70;38.90;;;;;;5029178;28;20391;-63
2020/12/13 12:51:01;;;;;;;4.50;1.40;;;22.60;38.80;;;;;;5011013;28;20400;-63
2020/12/13 12:53:27;;;;;;;2.78;1.50;;;22.70;38.70;;;;;;5028854;28;20397;-63
2020/12/13 12:55:52;;;;;;;2.72;1.50;;;22.70;38.50;;;;;;5029263;28;20391;-63